createdAt,value
2018-02-17T00:00:09.453Z,28.20
2018-02-17T00:02:02.721Z,26.30
2018-02-17T00:03:02.632Z,30.40
2018-02-17T00:04:56.995Z,28.10
2018-02-17T00:05:56.799Z,30.60
2018-02-17T00:07:50.064Z,28.40
2018-02-17T00:08:49.977Z,34.30
2018-02-17T00:10:43.229Z,31.70
2018-02-17T00:11:43.156Z,30.90
2018-02-17T00:13:36.425Z,27.80
2018-02-17T00:14:36.336Z,30.50
2018-02-17T00:16:29.584Z,28.00
2018-02-17T00:17:29.511Z,27.60
2018-02-17T00:19:22.779Z,30.10
2018-02-17T00:20:22.687Z,24.90
2018-02-17T00:22:15.958Z,33.30
2018-02-17T00:23:15.864Z,31.30
2018-02-17T00:25:09.116Z,25.90
2018-02-17T00:26:09.040Z,29.60
2018-02-17T00:28:02.308Z,26.80
2018-02-17T00:29:02.219Z,23.40
2018-02-17T00:30:55.548Z,27.50
2018-02-17T00:31:55.476Z,25.30
2018-02-17T00:33:48.746Z,25.40
2018-02-17T00:34:48.652Z,26.20
2018-02-17T00:36:41.414Z,23.50
2018-02-17T00:37:41.340Z,27.80
2018-02-17T00:39:34.613Z,23.20
2018-02-17T00:40:34.516Z,27.50
2018-02-17T00:42:27.788Z,25.40
2018-02-17T00:43:27.691Z,22.70
2018-02-17T00:45:20.942Z,26.70
2018-02-17T00:46:20.868Z,30.20
2018-02-17T00:48:14.136Z,24.30
2018-02-17T00:49:14.042Z,25.30
2018-02-17T00:51:07.562Z,27.80
2018-02-17T00:52:07.488Z,26.10
2018-02-17T00:54:00.758Z,27.80
2018-02-17T00:55:00.666Z,24.50
2018-02-17T00:56:53.912Z,23.10
2018-02-17T00:57:53.837Z,27.10
2018-02-17T00:59:47.097Z,26.60
2018-02-17T01:00:47.005Z,26.60
2018-02-17T01:02:40.271Z,23.00
2018-02-17T01:03:40.179Z,26.50
2018-02-17T01:05:33.560Z,24.60
2018-02-17T01:06:33.491Z,24.50
2018-02-17T01:08:26.757Z,25.90
2018-02-17T01:09:26.663Z,25.30
2018-02-17T01:11:19.912Z,25.10
2018-02-17T01:12:19.838Z,26.50
2018-02-17T01:14:13.218Z,25.00
2018-02-17T01:15:13.014Z,27.10
2018-02-17T01:17:06.263Z,28.40
2018-02-17T01:18:06.188Z,25.90
2018-02-17T01:19:59.591Z,30.90
2018-02-17T01:20:59.499Z,25.70
2018-02-17T01:22:52.764Z,24.90
2018-02-17T01:23:52.670Z,25.10
2018-02-17T01:25:45.921Z,22.80
2018-02-17T01:26:45.848Z,25.00
2018-02-17T01:28:39.116Z,23.40
2018-02-17T01:29:39.023Z,25.40
2018-02-17T01:31:32.271Z,20.30
2018-02-17T01:32:32.199Z,24.80
2018-02-17T01:34:25.596Z,29.30
2018-02-17T01:35:25.498Z,25.90
2018-02-17T01:37:18.747Z,25.00
2018-02-17T01:38:18.673Z,19.90
2018-02-17T01:40:11.931Z,27.60
2018-02-17T01:41:11.840Z,21.60
2018-02-17T01:43:05.108Z,25.40
2018-02-17T01:44:05.011Z,26.10
2018-02-17T01:45:58.260Z,23.40
2018-02-17T01:46:58.187Z,28.10
2018-02-17T01:48:51.450Z,24.40
2018-02-17T01:49:51.359Z,18.70
2018-02-17T01:51:44.609Z,22.80
2018-02-17T01:52:44.534Z,24.60
2018-02-17T01:54:37.801Z,21.10
2018-02-17T01:55:37.706Z,25.80
2018-02-17T01:57:30.956Z,23.50
2018-02-17T01:58:30.874Z,21.60
2018-02-17T02:00:24.144Z,22.10
2018-02-17T02:01:24.050Z,25.30
2018-02-17T02:03:17.600Z,19.30
2018-02-17T02:04:17.506Z,26.00
2018-02-17T02:06:10.759Z,25.10
2018-02-17T02:07:10.685Z,22.70
2018-02-17T02:09:03.949Z,26.90
2018-02-17T02:10:03.855Z,25.20
2018-02-17T02:11:57.217Z,20.20
2018-02-17T02:12:57.027Z,22.20
2018-02-17T02:14:50.296Z,23.60
2018-02-17T02:15:50.205Z,23.40
2018-02-17T02:17:43.592Z,24.00
2018-02-17T02:18:43.517Z,26.60
2018-02-17T02:20:36.776Z,22.30
2018-02-17T02:21:36.682Z,24.20
2018-02-17T02:23:29.953Z,26.20
2018-02-17T02:24:29.852Z,32.10
2018-02-17T02:26:23.217Z,22.80
2018-02-17T02:27:23.030Z,20.70
2018-02-17T02:29:16.298Z,24.10
2018-02-17T02:30:16.204Z,25.60
2018-02-17T02:32:09.598Z,20.10
2018-02-17T02:33:09.527Z,25.50
2018-02-17T02:35:02.791Z,22.30
2018-02-17T02:36:02.690Z,23.60
2018-02-17T02:37:55.952Z,24.00
2018-02-17T02:38:55.870Z,25.00
2018-02-17T02:40:49.145Z,22.30
2018-02-17T02:41:49.048Z,25.20
2018-02-17T02:43:42.316Z,19.20
2018-02-17T02:44:42.221Z,22.20
2018-02-17T02:46:35.597Z,20.50
2018-02-17T02:47:35.521Z,22.60
2018-02-17T02:49:28.789Z,24.10
2018-02-17T02:50:28.698Z,26.10
2018-02-17T02:52:21.945Z,19.60
2018-02-17T02:53:21.870Z,20.00
2018-02-17T02:55:15.143Z,24.30
2018-02-17T02:56:15.047Z,27.20
2018-02-17T02:58:08.295Z,28.20
2018-02-17T02:59:08.220Z,21.90
2018-02-17T03:01:01.643Z,19.20
2018-02-17T03:02:01.512Z,22.30
2018-02-17T03:03:54.782Z,22.10
2018-02-17T03:04:54.689Z,21.50
2018-02-17T03:06:47.936Z,21.90
2018-02-17T03:07:47.859Z,20.50
2018-02-17T03:09:41.130Z,18.20
2018-02-17T03:10:41.040Z,21.30
2018-02-17T03:12:34.285Z,28.40
2018-02-17T03:13:34.223Z,23.60
2018-02-17T03:15:27.614Z,23.20
2018-02-17T03:16:27.519Z,22.70
2018-02-17T03:18:20.770Z,21.70
2018-02-17T03:19:20.697Z,20.50
2018-02-17T03:21:13.961Z,21.90
2018-02-17T03:22:13.868Z,23.80
2018-02-17T03:24:07.134Z,21.70
2018-02-17T03:25:07.040Z,24.20
2018-02-17T03:27:00.401Z,21.00
2018-02-17T03:28:00.214Z,21.80
2018-02-17T03:29:53.472Z,20.20
2018-02-17T03:30:53.379Z,20.80
2018-02-17T03:32:46.636Z,22.90
2018-02-17T03:33:46.551Z,20.70
2018-02-17T03:35:39.816Z,23.80
2018-02-17T03:36:39.724Z,24.70
2018-02-17T03:38:32.968Z,22.80
2018-02-17T03:39:32.895Z,21.70
2018-02-17T03:41:26.275Z,20.00
2018-02-17T03:42:26.068Z,20.40
2018-02-17T03:44:19.608Z,21.80
2018-02-17T03:45:19.513Z,22.70
2018-02-17T03:47:12.758Z,20.80
2018-02-17T03:48:12.683Z,23.30
2018-02-17T03:50:05.942Z,21.90
2018-02-17T03:51:05.846Z,21.30
2018-02-17T03:52:59.094Z,22.10
2018-02-17T03:53:59.017Z,27.70
2018-02-17T03:55:52.285Z,20.30
2018-02-17T03:56:52.190Z,19.80
2018-02-17T03:58:45.598Z,21.60
2018-02-17T03:59:45.519Z,20.70
2018-02-17T04:01:38.785Z,21.70
2018-02-17T04:02:38.690Z,19.10
2018-02-17T04:04:31.955Z,22.80
2018-02-17T04:05:31.860Z,19.50
2018-02-17T04:07:25.108Z,23.00
2018-02-17T04:08:25.033Z,24.80
2018-02-17T04:10:18.289Z,25.00
2018-02-17T04:11:18.195Z,21.30
2018-02-17T04:13:11.593Z,20.30
2018-02-17T04:14:11.516Z,20.10
2018-02-17T04:16:04.782Z,29.60
2018-02-17T04:17:04.687Z,22.20
2018-02-17T04:18:57.933Z,22.60
2018-02-17T04:19:57.859Z,24.50
2018-02-17T04:21:51.127Z,24.50
2018-02-17T04:22:51.032Z,28.50
2018-02-17T04:24:44.299Z,21.10
2018-02-17T04:25:44.205Z,20.90
2018-02-17T04:27:37.589Z,28.30
2018-02-17T04:28:37.515Z,26.20
2018-02-17T04:30:30.785Z,23.80
2018-02-17T04:31:30.688Z,22.40
2018-02-17T04:33:23.937Z,22.60
2018-02-17T04:34:23.860Z,22.30
2018-02-17T04:36:17.242Z,24.10
2018-02-17T04:37:17.033Z,24.70
2018-02-17T04:39:10.395Z,23.00
2018-02-17T04:40:10.213Z,20.10
2018-02-17T04:42:03.603Z,22.70
2018-02-17T04:43:03.506Z,22.50
2018-02-17T04:44:56.775Z,24.70
2018-02-17T04:45:56.681Z,23.10
2018-02-17T04:47:49.930Z,24.80
2018-02-17T04:48:49.854Z,24.80
2018-02-17T04:50:43.122Z,23.10
2018-02-17T04:51:43.027Z,21.90
2018-02-17T04:53:36.274Z,22.60
2018-02-17T04:54:36.200Z,20.60
2018-02-17T04:56:29.607Z,25.30
2018-02-17T04:57:29.512Z,21.80
2018-02-17T04:59:22.761Z,20.30
2018-02-17T05:00:22.685Z,18.30
2018-02-17T05:02:15.963Z,19.40
2018-02-17T05:03:15.868Z,20.70
2018-02-17T05:05:09.136Z,22.90
2018-02-17T05:06:09.041Z,24.20
2018-02-17T05:08:02.288Z,23.60
2018-02-17T05:09:02.214Z,26.60
2018-02-17T05:10:55.602Z,25.20
2018-02-17T05:11:55.506Z,27.30
2018-02-17T05:13:48.754Z,19.40
2018-02-17T05:14:48.678Z,20.10
2018-02-17T05:17:02.903Z,23.60
2018-02-17T05:17:41.852Z,19.10
2018-02-17T05:19:35.098Z,22.50
2018-02-17T05:20:35.022Z,29.20
2018-02-17T05:22:28.290Z,22.00
2018-02-17T05:23:28.195Z,19.40
2018-02-17T05:25:21.591Z,21.10
2018-02-17T05:26:21.497Z,24.90
2018-02-17T05:28:14.856Z,23.20
2018-02-17T05:29:14.670Z,23.90
2018-02-17T05:31:07.937Z,19.60
2018-02-17T05:32:07.841Z,21.50
2018-02-17T05:34:01.084Z,27.10
2018-02-17T05:35:01.019Z,24.90
2018-02-17T05:36:54.280Z,27.30
2018-02-17T05:37:54.189Z,22.40
2018-02-17T05:39:47.424Z,25.90
2018-02-17T05:40:47.353Z,19.50
2018-02-17T05:42:40.619Z,26.00
2018-02-17T05:43:40.521Z,26.30
2018-02-17T05:45:33.789Z,23.90
2018-02-17T05:46:33.695Z,20.70
2018-02-17T05:48:26.944Z,25.40
2018-02-17T05:49:26.869Z,24.50
2018-02-17T05:51:20.131Z,27.60
2018-02-17T05:52:20.040Z,25.00
2018-02-17T05:54:13.583Z,24.90
2018-02-17T05:55:13.505Z,29.60
2018-02-17T05:57:06.885Z,23.80
2018-02-17T05:58:06.679Z,27.00
2018-02-17T06:00:00.032Z,26.40
2018-02-17T06:00:59.852Z,25.20
2018-02-17T06:02:53.118Z,25.80
2018-02-17T06:03:53.026Z,25.60
2018-02-17T06:05:46.291Z,25.80
2018-02-17T06:06:46.199Z,26.30
2018-02-17T06:08:39.574Z,23.10
2018-02-17T06:09:39.499Z,24.60
2018-02-17T06:11:32.766Z,28.30
2018-02-17T06:12:32.674Z,24.60
2018-02-17T06:14:25.921Z,25.90
2018-02-17T06:15:25.851Z,25.70
2018-02-17T06:17:19.118Z,27.30
2018-02-17T06:18:19.020Z,26.90
2018-02-17T06:20:12.272Z,29.10
2018-02-17T06:21:12.196Z,25.50
2018-02-17T06:23:05.589Z,35.70
2018-02-17T06:24:05.499Z,31.00
2018-02-17T06:25:58.764Z,34.20
2018-02-17T06:26:58.669Z,28.80
2018-02-17T06:28:51.915Z,29.30
2018-02-17T06:29:51.838Z,27.40
2018-02-17T06:31:45.219Z,27.50
2018-02-17T06:32:45.013Z,23.90
2018-02-17T06:34:38.261Z,27.40
2018-02-17T06:35:38.184Z,24.70
2018-02-17T06:37:31.599Z,29.10
2018-02-17T06:38:31.499Z,25.30
2018-02-17T06:40:24.738Z,26.50
2018-02-17T06:41:24.664Z,25.30
2018-02-17T06:43:18.933Z,28.50
2018-02-17T06:44:18.836Z,27.40
2018-02-17T06:46:12.104Z,28.30
2018-02-17T06:47:12.010Z,28.40
2018-02-17T06:49:05.257Z,29.90
2018-02-17T06:50:05.181Z,25.30
2018-02-17T06:51:58.448Z,26.00
2018-02-17T06:52:58.354Z,31.90
2018-02-17T06:54:51.603Z,27.80
2018-02-17T06:55:51.528Z,28.00
2018-02-17T06:57:44.794Z,27.20
2018-02-17T06:58:44.705Z,24.60
2018-02-17T07:00:37.941Z,29.30
2018-02-17T07:01:37.863Z,27.20
2018-02-17T07:03:31.132Z,28.90
2018-02-17T07:04:31.039Z,25.80
2018-02-17T07:06:24.309Z,31.30
2018-02-17T07:07:24.213Z,27.80
2018-02-17T07:09:17.597Z,24.40
2018-02-17T07:10:17.525Z,25.60
2018-02-17T07:12:10.783Z,27.90
2018-02-17T07:13:10.690Z,26.50
2018-02-17T07:15:03.935Z,29.90
2018-02-17T07:16:03.848Z,28.80
2018-02-17T07:17:57.107Z,31.90
2018-02-17T07:18:57.016Z,31.00
2018-02-17T07:20:50.248Z,25.40
2018-02-17T07:21:50.175Z,28.10
2018-02-17T07:23:43.592Z,26.10
2018-02-17T07:24:43.497Z,25.40
2018-02-17T07:26:36.754Z,25.70
2018-02-17T07:27:36.658Z,22.60
2018-02-17T07:29:29.895Z,26.20
2018-02-17T07:30:29.823Z,28.90
2018-02-17T07:32:23.082Z,24.80
2018-02-17T07:33:22.985Z,27.10
2018-02-17T07:35:16.232Z,29.80
2018-02-17T07:36:16.168Z,31.30
2018-02-17T07:38:09.538Z,23.60
2018-02-17T07:39:09.329Z,25.30
2018-02-17T07:41:02.596Z,27.60
2018-02-17T07:42:02.504Z,28.20
2018-02-17T07:43:55.770Z,26.40
2018-02-17T07:44:55.676Z,25.70
2018-02-17T07:46:48.944Z,24.00
2018-02-17T07:47:48.851Z,22.10
2018-02-17T07:49:42.098Z,27.20
2018-02-17T07:50:42.024Z,27.60
2018-02-17T07:52:35.420Z,37.10
2018-02-17T07:53:35.324Z,33.70
2018-02-17T07:55:28.687Z,26.50
2018-02-17T07:56:28.501Z,26.40
2018-02-17T07:58:21.771Z,21.60
2018-02-17T07:59:21.675Z,23.20
2018-02-17T08:01:14.944Z,27.40
2018-02-17T08:02:14.851Z,28.60
2018-02-17T08:04:08.118Z,25.20
2018-02-17T08:05:08.025Z,25.50
2018-02-17T08:07:01.419Z,30.80
2018-02-17T08:08:01.323Z,32.10
2018-02-17T08:09:54.569Z,25.90
2018-02-17T08:10:54.491Z,26.20
2018-02-17T08:12:47.780Z,27.30
2018-02-17T08:13:47.689Z,27.40
2018-02-17T08:15:40.925Z,27.70
2018-02-17T08:16:40.848Z,28.30
2018-02-17T08:18:34.228Z,31.10
2018-02-17T08:19:34.010Z,35.00
2018-02-17T08:21:27.281Z,30.10
2018-02-17T08:22:27.180Z,28.60
2018-02-17T08:24:20.418Z,30.20
2018-02-17T08:25:20.346Z,27.70
2018-02-17T08:27:13.604Z,33.10
2018-02-17T08:28:13.510Z,33.30
2018-02-17T08:30:06.752Z,27.80
2018-02-17T08:31:06.675Z,28.40
2018-02-17T08:32:59.935Z,27.00
2018-02-17T08:33:59.837Z,32.10
2018-02-17T08:35:53.088Z,33.60
2018-02-17T08:36:53.014Z,32.10
2018-02-17T08:38:46.287Z,33.30
2018-02-17T08:39:46.223Z,31.40
2018-02-17T08:41:39.455Z,28.80
2018-02-17T08:42:39.357Z,26.40
2018-02-17T08:44:32.595Z,30.20
2018-02-17T08:45:32.520Z,32.70
2018-02-17T08:47:25.781Z,30.30
2018-02-17T08:48:25.691Z,32.10
2018-02-17T08:50:19.049Z,32.30
2018-02-17T08:51:18.857Z,33.70
2018-02-17T08:53:12.155Z,37.80
2018-02-17T08:54:12.063Z,31.10
2018-02-17T08:56:05.425Z,31.80
2018-02-17T08:57:05.334Z,33.20
2018-02-17T08:58:58.595Z,28.50
2018-02-17T08:59:58.502Z,30.70
2018-02-17T09:01:51.765Z,32.90
2018-02-17T09:02:51.668Z,31.60
2018-02-17T09:04:44.909Z,33.10
2018-02-17T09:05:44.834Z,33.70
2018-02-17T09:07:38.093Z,30.00
2018-02-17T09:08:38.002Z,32.90
2018-02-17T09:10:31.247Z,34.60
2018-02-17T09:11:31.172Z,33.10
2018-02-17T09:13:24.433Z,34.40
2018-02-17T09:14:24.338Z,31.30
2018-02-17T09:16:17.579Z,32.50
2018-02-17T09:17:17.506Z,38.70
2018-02-17T09:19:10.776Z,33.20
2018-02-17T09:20:10.678Z,34.20
2018-02-17T09:22:03.939Z,37.40
2018-02-17T09:23:03.845Z,35.30
2018-02-17T09:24:57.085Z,35.80
2018-02-17T09:25:57.013Z,32.70
2018-02-17T09:27:50.272Z,34.30
2018-02-17T09:28:50.179Z,38.70
2018-02-17T09:30:43.425Z,37.30
2018-02-17T09:31:43.352Z,35.10
2018-02-17T09:33:36.615Z,36.60
2018-02-17T09:34:36.522Z,33.10
2018-02-17T09:36:29.768Z,39.80
2018-02-17T09:37:29.689Z,35.90
2018-02-17T09:39:22.953Z,35.60
2018-02-17T09:40:22.869Z,35.00
2018-02-17T09:42:16.124Z,37.10
2018-02-17T09:43:16.034Z,36.30
2018-02-17T09:45:08.788Z,31.80
2018-02-17T09:46:08.716Z,33.00
2018-02-17T09:48:02.090Z,34.20
2018-02-17T09:49:01.880Z,34.20
2018-02-17T09:50:55.123Z,35.40
2018-02-17T09:51:55.051Z,35.20
2018-02-17T09:53:48.318Z,35.20
2018-02-17T09:54:48.224Z,35.00
2018-02-17T09:56:42.472Z,37.20
2018-02-17T09:57:42.401Z,35.80
2018-02-17T09:59:35.667Z,40.80
2018-02-17T10:00:35.616Z,40.70
2018-02-17T10:02:28.835Z,33.80
2018-02-17T10:03:28.752Z,34.90
2018-02-17T10:05:21.988Z,36.40
2018-02-17T10:06:21.916Z,33.70
2018-02-17T10:08:16.188Z,37.80
2018-02-17T10:09:16.087Z,42.90
2018-02-17T10:11:09.456Z,36.10
2018-02-17T10:12:09.341Z,35.30
2018-02-17T10:14:02.600Z,35.20
2018-02-17T10:15:02.514Z,37.00
2018-02-17T10:16:55.880Z,36.20
2018-02-17T10:17:55.686Z,37.90
2018-02-17T10:19:49.950Z,37.70
2018-02-17T10:20:49.864Z,34.50
2018-02-17T10:22:43.127Z,38.40
2018-02-17T10:23:43.040Z,37.20
2018-02-17T10:25:36.398Z,35.20
2018-02-17T10:26:36.211Z,35.90
2018-02-17T10:28:29.605Z,37.90
2018-02-17T10:29:29.506Z,39.60
2018-02-17T10:31:22.883Z,44.30
2018-02-17T10:32:22.691Z,41.70
2018-02-17T10:34:15.951Z,41.70
2018-02-17T10:35:15.863Z,36.90
2018-02-17T10:37:09.108Z,39.40
2018-02-17T10:38:09.033Z,41.20
2018-02-17T10:40:02.296Z,40.60
2018-02-17T10:41:02.212Z,36.70
2018-02-17T10:42:55.603Z,37.20
2018-02-17T10:43:55.513Z,32.30
2018-02-17T10:45:48.879Z,34.50
2018-02-17T10:46:48.685Z,34.10
2018-02-17T10:48:41.949Z,36.30
2018-02-17T10:49:41.867Z,38.10
2018-02-17T10:51:36.113Z,35.50
2018-02-17T10:52:36.037Z,36.20
2018-02-17T10:54:29.632Z,36.30
2018-02-17T10:55:29.515Z,36.20
2018-02-17T10:57:22.761Z,32.30
2018-02-17T10:58:22.688Z,34.80
2018-02-17T11:00:15.468Z,33.00
2018-02-17T11:01:15.378Z,35.10
2018-02-17T11:03:08.653Z,35.60
2018-02-17T11:04:08.562Z,33.90
2018-02-17T11:06:01.427Z,31.30
2018-02-17T11:07:01.249Z,33.10
2018-02-17T11:08:54.523Z,28.70
2018-02-17T11:09:54.425Z,33.30
2018-02-17T11:11:48.668Z,32.70
2018-02-17T11:12:48.626Z,39.00
2018-02-17T11:14:41.867Z,28.80
2018-02-17T11:15:41.779Z,32.40
2018-02-17T11:17:36.034Z,32.70
2018-02-17T11:18:35.957Z,27.30
2018-02-17T11:20:30.232Z,38.60
2018-02-17T11:21:30.146Z,28.90
2018-02-17T11:23:23.611Z,29.60
2018-02-17T11:24:23.520Z,32.20
2018-02-17T11:26:16.769Z,37.30
2018-02-17T11:27:16.696Z,41.30
2018-02-17T11:29:09.966Z,46.30
2018-02-17T11:30:09.878Z,43.90
2018-02-17T11:32:03.241Z,49.70
2018-02-17T11:33:03.060Z,49.00
2018-02-17T11:34:56.325Z,46.70
2018-02-17T11:35:56.238Z,51.60
2018-02-17T11:37:49.599Z,52.20
2018-02-17T11:38:49.516Z,48.30
2018-02-17T11:40:42.903Z,40.70
2018-02-17T11:41:42.691Z,41.70
2018-02-17T11:43:36.970Z,43.30
2018-02-17T11:44:36.879Z,42.40
2018-02-17T11:46:30.236Z,37.00
2018-02-17T11:47:30.051Z,34.30
2018-02-17T11:49:24.315Z,28.90
2018-02-17T11:50:24.224Z,30.00
2018-02-17T11:52:17.580Z,29.80
2018-02-17T11:53:17.510Z,25.80
2018-02-17T11:55:10.771Z,31.20
2018-02-17T11:56:10.684Z,26.40
2018-02-17T11:58:03.926Z,27.20
2018-02-17T11:59:03.853Z,28.30
2018-02-17T12:00:58.131Z,30.20
2018-02-17T12:01:58.037Z,27.30
2018-02-17T12:03:51.611Z,25.50
2018-02-17T12:04:51.525Z,23.20
2018-02-17T12:06:44.769Z,24.00
2018-02-17T12:07:44.701Z,25.00
2018-02-17T12:09:38.091Z,26.40
2018-02-17T12:10:37.868Z,21.50
2018-02-17T12:12:31.126Z,28.50
2018-02-17T12:13:31.046Z,28.70
2018-02-17T12:15:24.310Z,26.60
2018-02-17T12:16:24.219Z,25.60
2018-02-17T12:18:17.596Z,22.40
2018-02-17T12:19:17.523Z,23.70
2018-02-17T12:21:10.806Z,24.90
2018-02-17T12:22:10.710Z,22.80
2018-02-17T12:24:04.045Z,24.00
2018-02-17T12:25:03.884Z,24.90
2018-02-17T12:26:57.133Z,26.50
2018-02-17T12:27:57.057Z,21.20
2018-02-17T12:29:50.325Z,26.20
2018-02-17T12:30:50.234Z,21.50
2018-02-17T12:32:43.604Z,26.10
2018-02-17T12:33:43.531Z,22.50
2018-02-17T12:35:36.917Z,22.50
2018-02-17T12:36:36.700Z,19.90
2018-02-17T12:38:29.948Z,22.10
2018-02-17T12:39:29.884Z,17.00
2018-02-17T12:41:23.275Z,21.70
2018-02-17T12:42:23.064Z,22.80
2018-02-17T12:44:16.329Z,25.70
2018-02-17T12:45:16.238Z,25.50
2018-02-17T12:47:09.606Z,20.90
2018-02-17T12:48:09.535Z,25.60
2018-02-17T12:50:02.803Z,20.00
2018-02-17T12:51:02.708Z,21.10
2018-02-17T12:52:55.964Z,20.30
2018-02-17T12:53:55.897Z,24.80
2018-02-17T12:55:49.164Z,18.00
2018-02-17T12:56:49.069Z,21.70
2018-02-17T12:58:42.315Z,22.10
2018-02-17T12:59:42.243Z,24.10
2018-02-17T13:01:35.634Z,22.00
2018-02-17T13:02:35.543Z,24.30
2018-02-17T13:04:28.817Z,17.60
2018-02-17T13:05:28.730Z,22.20
2018-02-17T13:07:21.975Z,20.10
2018-02-17T13:08:21.909Z,17.90
2018-02-17T13:10:15.170Z,22.40
2018-02-17T13:11:15.078Z,23.70
2018-02-17T13:13:08.446Z,17.80
2018-02-17T13:14:08.289Z,17.60
2018-02-17T13:16:01.684Z,20.10
2018-02-17T13:17:01.552Z,23.00
2018-02-17T13:18:54.800Z,20.70
2018-02-17T13:19:54.731Z,19.80
2018-02-17T13:21:48.120Z,19.60
2018-02-17T13:22:47.915Z,20.60
2018-02-17T13:24:41.268Z,17.40
2018-02-17T13:25:41.173Z,15.50
2018-02-17T13:27:34.424Z,17.60
2018-02-17T13:28:34.348Z,17.60
2018-02-17T13:30:27.644Z,17.30
2018-02-17T13:31:27.554Z,22.70
2018-02-17T13:33:20.813Z,16.80
2018-02-17T13:34:20.741Z,19.10
2018-02-17T13:36:14.008Z,18.00
2018-02-17T13:37:13.918Z,16.80
2018-02-17T13:39:08.286Z,20.90
2018-02-17T13:40:08.091Z,18.40
2018-02-17T13:42:01.987Z,16.00
2018-02-17T13:43:01.533Z,20.60
2018-02-17T13:44:54.800Z,21.10
2018-02-17T13:45:54.719Z,18.50
2018-02-17T13:47:47.966Z,19.10
2018-02-17T13:48:47.892Z,21.70
2018-02-17T13:50:41.163Z,16.50
2018-02-17T13:51:41.068Z,16.20
2018-02-17T13:53:34.317Z,16.00
2018-02-17T13:54:34.246Z,20.60
2018-02-17T13:56:27.642Z,22.70
2018-02-17T13:57:27.552Z,22.00
2018-02-17T13:59:20.799Z,16.50
2018-02-17T14:00:20.726Z,17.30
2018-02-17T14:02:13.992Z,22.10
2018-02-17T14:03:13.905Z,19.60
2018-02-17T14:05:07.187Z,15.90
2018-02-17T14:06:07.097Z,17.10
2018-02-17T14:08:00.462Z,17.20
2018-02-17T14:09:00.271Z,19.10
2018-02-17T14:10:53.630Z,13.40
2018-02-17T14:11:53.541Z,17.50
2018-02-17T14:13:47.794Z,18.10
2018-02-17T14:14:47.719Z,16.40
2018-02-17T14:16:40.985Z,18.10
2018-02-17T14:17:40.896Z,17.80
2018-02-17T14:19:35.154Z,17.20
2018-02-17T14:20:35.080Z,17.80
2018-02-17T14:22:28.358Z,17.00
2018-02-17T14:23:28.269Z,18.50
2018-02-17T14:25:21.546Z,17.70
2018-02-17T14:26:21.467Z,17.30
2018-02-17T14:28:14.701Z,14.00
2018-02-17T14:29:14.625Z,15.60
2018-02-17T14:31:07.900Z,15.40
2018-02-17T14:32:07.817Z,20.10
2018-02-17T14:34:01.070Z,16.60
2018-02-17T14:35:01.001Z,17.60
2018-02-17T14:36:55.284Z,22.50
2018-02-17T14:37:55.197Z,23.50
2018-02-17T14:39:48.455Z,19.50
2018-02-17T14:40:48.370Z,19.70
2018-02-17T14:42:41.635Z,16.80
2018-02-17T14:43:41.544Z,19.30
2018-02-17T14:45:34.806Z,21.00
2018-02-17T14:46:34.717Z,19.20
2018-02-17T14:48:27.964Z,18.90
2018-02-17T14:49:27.893Z,21.80
2018-02-17T14:51:21.160Z,22.20
2018-02-17T14:52:21.070Z,17.70
2018-02-17T14:54:14.315Z,22.60
2018-02-17T14:55:14.244Z,20.30
2018-02-17T14:57:07.509Z,21.40
2018-02-17T14:58:07.418Z,20.30
2018-02-17T15:00:00.667Z,23.10
2018-02-17T15:01:00.596Z,19.90
2018-02-17T15:02:53.866Z,20.10
2018-02-17T15:03:53.778Z,23.70
2018-02-17T15:05:47.046Z,17.40
2018-02-17T15:06:46.952Z,19.60
2018-02-17T15:08:40.220Z,19.00
2018-02-17T15:09:40.132Z,21.40
2018-02-17T15:11:33.519Z,18.20
2018-02-17T15:12:33.360Z,22.50
2018-02-17T15:14:26.604Z,18.30
2018-02-17T15:15:26.530Z,20.00
2018-02-17T15:17:19.798Z,21.20
2018-02-17T15:18:19.707Z,21.00
2018-02-17T15:20:12.954Z,23.10
2018-02-17T15:21:12.882Z,17.70
2018-02-17T15:23:06.153Z,19.60
2018-02-17T15:24:06.055Z,18.80
2018-02-17T15:25:59.449Z,24.30
2018-02-17T15:26:59.362Z,21.60
2018-02-17T15:28:52.604Z,19.80
2018-02-17T15:29:52.534Z,17.30
2018-02-17T15:31:45.799Z,17.60
2018-02-17T15:32:45.707Z,20.90
2018-02-17T15:34:38.953Z,23.00
2018-02-17T15:35:38.879Z,20.50
2018-02-17T15:37:32.142Z,21.00
2018-02-17T15:38:32.052Z,22.80
2018-02-17T15:40:25.428Z,22.60
2018-02-17T15:41:25.359Z,26.10
2018-02-17T15:43:18.622Z,23.80
2018-02-17T15:44:18.530Z,21.30
2018-02-17T15:46:11.800Z,21.80
2018-02-17T15:47:11.705Z,19.20
2018-02-17T15:49:04.951Z,20.00
2018-02-17T15:50:04.878Z,24.10
2018-02-17T15:51:59.263Z,20.80
2018-02-17T15:52:59.053Z,19.70
2018-02-17T15:54:52.418Z,20.30
2018-02-17T15:55:52.228Z,27.00
2018-02-17T15:57:45.492Z,20.40
2018-02-17T15:58:45.401Z,21.70
2018-02-17T16:00:38.649Z,21.10
2018-02-17T16:01:38.608Z,20.20
2018-02-17T16:03:31.842Z,21.30
2018-02-17T16:04:31.754Z,20.30
2018-02-17T16:06:25.015Z,20.20
2018-02-17T16:07:24.924Z,24.20
2018-02-17T16:09:18.171Z,27.60
2018-02-17T16:10:18.098Z,20.30
2018-02-17T16:12:11.446Z,22.60
2018-02-17T16:13:11.359Z,17.80
2018-02-17T16:15:04.720Z,20.90
2018-02-17T16:16:04.541Z,22.50
2018-02-17T16:17:57.795Z,21.60
2018-02-17T16:18:57.701Z,20.30
2018-02-17T16:20:50.945Z,17.10
2018-02-17T16:21:50.882Z,21.00
2018-02-17T16:23:44.135Z,22.70
2018-02-17T16:24:44.047Z,24.50
2018-02-17T16:26:37.444Z,24.90
2018-02-17T16:27:37.354Z,22.00
2018-02-17T16:29:30.600Z,22.50
2018-02-17T16:30:30.528Z,19.80
2018-02-17T16:32:23.792Z,23.70
2018-02-17T16:33:23.701Z,26.90
2018-02-17T16:35:16.951Z,22.90
2018-02-17T16:36:16.873Z,25.00
2018-02-17T16:38:10.138Z,20.80
2018-02-17T16:39:10.047Z,24.20
2018-02-17T16:41:03.434Z,23.00
2018-02-17T16:42:03.358Z,26.10
2018-02-17T16:43:56.626Z,22.00
2018-02-17T16:44:56.534Z,22.90
2018-02-17T16:46:49.807Z,26.10
2018-02-17T16:47:49.714Z,23.40
2018-02-17T16:49:42.959Z,24.10
2018-02-17T16:50:42.885Z,21.00
2018-02-17T16:52:36.148Z,24.00
2018-02-17T16:53:36.058Z,24.00
2018-02-17T16:55:29.433Z,23.90
2018-02-17T16:56:29.360Z,25.30
2018-02-17T16:58:22.625Z,26.80
2018-02-17T16:59:22.535Z,28.10
2018-02-17T17:01:15.784Z,25.70
2018-02-17T17:02:15.715Z,23.60
2018-02-17T17:04:08.969Z,26.00
2018-02-17T17:05:08.875Z,27.60
2018-02-17T17:07:02.150Z,28.70
2018-02-17T17:08:02.049Z,29.20
2018-02-17T17:09:55.300Z,31.60
2018-02-17T17:10:55.225Z,29.20
2018-02-17T17:12:48.491Z,27.80
2018-02-17T17:13:48.395Z,34.00
2018-02-17T17:15:41.655Z,24.50
2018-02-17T17:16:41.581Z,25.70
2018-02-17T17:18:34.850Z,27.80
2018-02-17T17:19:34.760Z,28.10
2018-02-17T17:21:28.013Z,28.60
2018-02-17T17:22:27.941Z,24.80
2018-02-17T17:24:21.213Z,27.20
2018-02-17T17:25:21.124Z,29.10
2018-02-17T17:27:14.398Z,29.80
2018-02-17T17:28:14.306Z,28.30
2018-02-17T17:30:07.559Z,26.70
2018-02-17T17:31:07.485Z,26.50
2018-02-17T17:33:00.765Z,26.50
2018-02-17T17:34:00.673Z,28.20
2018-02-17T17:35:53.922Z,28.50
2018-02-17T17:36:53.852Z,31.30
2018-02-17T17:38:47.234Z,27.40
2018-02-17T17:39:47.039Z,30.50
2018-02-17T17:41:40.286Z,28.90
2018-02-17T17:42:40.213Z,26.10
2018-02-17T17:44:33.489Z,32.80
2018-02-17T17:45:33.394Z,27.80
2018-02-17T17:47:26.668Z,26.40
2018-02-17T17:48:26.576Z,30.60
2018-02-17T17:50:19.821Z,26.10
2018-02-17T17:51:19.749Z,30.60
2018-02-17T17:53:13.132Z,29.30
2018-02-17T17:54:12.929Z,26.70
2018-02-17T17:56:06.293Z,30.50
2018-02-17T17:57:06.112Z,34.80
2018-02-17T17:58:59.382Z,30.00
2018-02-17T17:59:59.292Z,28.00
2018-02-17T18:01:52.544Z,32.40
2018-02-17T18:02:52.471Z,32.70
2018-02-17T18:04:45.744Z,35.90
2018-02-17T18:05:45.653Z,35.90
2018-02-17T18:07:38.928Z,34.70
2018-02-17T18:08:38.833Z,30.10
2018-02-17T18:10:32.080Z,31.70
2018-02-17T18:11:32.007Z,32.10
2018-02-17T18:13:25.279Z,31.00
2018-02-17T18:14:25.186Z,35.90
2018-02-17T18:16:18.549Z,33.40
2018-02-17T18:17:18.368Z,29.80
2018-02-17T18:19:11.639Z,36.40
2018-02-17T18:20:11.590Z,37.70
2018-02-17T18:22:04.836Z,38.30
2018-02-17T18:23:04.765Z,40.70
2018-02-17T18:24:58.038Z,39.90
2018-02-17T18:25:57.944Z,39.30
2018-02-17T18:27:51.328Z,36.80
2018-02-17T18:28:51.136Z,40.40
2018-02-17T18:30:44.430Z,36.20
2018-02-17T18:31:44.357Z,42.70
2018-02-17T18:33:37.637Z,38.60
2018-02-17T18:34:37.543Z,42.40